sensor_id;sensor_type;location;lat;lon;timestamp;pressure;altitude;pressure_sealevel;temperature;humidity
20971;BME280;10644;48.834;10.088;2023-07-13T00:01:48;96579.59;;;25.27;49.32
20971;BME280;10644;48.834;10.088;2023-07-13T00:04:16;96576.38;;;25.39;49.26
20971;BME280;10644;48.834;10.088;2023-07-13T00:06:44;96576.50;;;25.46;49.06
20971;BME280;10644;48.834;10.088;2023-07-13T00:09:14;96572.59;;;25.42;49.35
20971;BME280;10644;48.834;10.088;2023-07-13T00:11:40;96557.38;;;25.37;49.41
20971;BME280;10644;48.834;10.088;2023-07-13T00:14:06;96550.91;;;25.25;50.00
20971;BME280;10644;48.834;10.088;2023-07-13T00:16:37;96557.44;;;25.29;49.64
20971;BME280;10644;48.834;10.088;2023-07-13T00:19:03;96553.00;;;25.30;49.58
20971;BME280;10644;48.834;10.088;2023-07-13T00:21:29;96562.22;;;25.26;49.98
20971;BME280;10644;48.834;10.088;2023-07-13T00:23:54;96570.38;;;25.31;49.97
20971;BME280;10644;48.834;10.088;2023-07-13T00:26:19;96570.13;;;25.40;49.21
20971;BME280;10644;48.834;10.088;2023-07-13T00:28:45;96572.34;;;25.51;48.62
20971;BME280;10644;48.834;10.088;2023-07-13T00:31:11;96561.25;;;25.64;48.09
20971;BME280;10644;48.834;10.088;2023-07-13T00:33:37;96570.19;;;25.69;47.56
20971;BME280;10644;48.834;10.088;2023-07-13T00:36:05;96581.41;;;25.63;47.62
20971;BME280;10644;48.834;10.088;2023-07-13T00:38:31;96577.59;;;25.51;47.42
20971;BME280;10644;48.834;10.088;2023-07-13T00:40:56;96573.88;;;25.46;47.28
20971;BME280;10644;48.834;10.088;2023-07-13T00:43:23;96581.09;;;25.44;47.53
20971;BME280;10644;48.834;10.088;2023-07-13T00:48:18;96570.00;;;25.34;47.17
20971;BME280;10644;48.834;10.088;2023-07-13T00:50:48;96579.09;;;25.23;47.35
20971;BME280;10644;48.834;10.088;2023-07-13T00:53:15;96579.88;;;25.32;47.06
20971;BME280;10644;48.834;10.088;2023-07-13T00:55:42;96591.25;;;25.24;46.90
20971;BME280;10644;48.834;10.088;2023-07-13T00:58:07;96594.03;;;25.23;46.67
20971;BME280;10644;48.834;10.088;2023-07-13T01:00:34;96599.63;;;25.20;46.31
20971;BME280;10644;48.834;10.088;2023-07-13T01:03:01;96598.31;;;25.16;46.13
20971;BME280;10644;48.834;10.088;2023-07-13T01:05:30;96618.38;;;25.09;46.00
20971;BME280;10644;48.834;10.088;2023-07-13T01:07:57;96603.13;;;24.82;46.11
20971;BME280;10644;48.834;10.088;2023-07-13T01:10:23;96594.25;;;24.83;46.07
20971;BME280;10644;48.834;10.088;2023-07-13T01:12:48;96591.69;;;24.75;46.04
20971;BME280;10644;48.834;10.088;2023-07-13T01:15:45;96599.50;;;24.83;45.89
20971;BME280;10644;48.834;10.088;2023-07-13T01:18:17;96598.25;;;24.71;46.55
20971;BME280;10644;48.834;10.088;2023-07-13T01:21:03;96613.72;;;24.58;46.66
20971;BME280;10644;48.834;10.088;2023-07-13T01:23:30;96617.00;;;24.52;46.69
20971;BME280;10644;48.834;10.088;2023-07-13T01:25:56;96614.84;;;24.55;46.44
20971;BME280;10644;48.834;10.088;2023-07-13T01:28:23;96617.63;;;24.54;46.04
20971;BME280;10644;48.834;10.088;2023-07-13T01:30:53;96623.06;;;24.44;46.45
20971;BME280;10644;48.834;10.088;2023-07-13T01:33:19;96635.22;;;24.29;46.64
20971;BME280;10644;48.834;10.088;2023-07-13T01:35:45;96632.97;;;24.18;46.46
20971;BME280;10644;48.834;10.088;2023-07-13T01:38:12;96626.88;;;24.26;46.30
20971;BME280;10644;48.834;10.088;2023-07-13T01:40:39;96621.34;;;24.21;46.59
20971;BME280;10644;48.834;10.088;2023-07-13T01:43:05;96616.44;;;24.18;46.61
20971;BME280;10644;48.834;10.088;2023-07-13T01:45:31;96625.91;;;24.35;46.32
20971;BME280;10644;48.834;10.088;2023-07-13T01:47:56;96623.91;;;24.45;46.00
20971;BME280;10644;48.834;10.088;2023-07-13T01:50:23;96623.44;;;24.41;46.00
20971;BME280;10644;48.834;10.088;2023-07-13T01:52:48;96628.84;;;24.32;46.23
20971;BME280;10644;48.834;10.088;2023-07-13T01:55:13;96626.38;;;24.38;45.75
20971;BME280;10644;48.834;10.088;2023-07-13T01:57:39;96626.56;;;24.29;45.95
20971;BME280;10644;48.834;10.088;2023-07-13T02:00:06;96634.78;;;24.10;46.60
20971;BME280;10644;48.834;10.088;2023-07-13T02:02:32;96630.41;;;23.94;46.72
20971;BME280;10644;48.834;10.088;2023-07-13T02:04:59;96630.06;;;24.05;46.70
20971;BME280;10644;48.834;10.088;2023-07-13T02:07:25;96617.78;;;24.06;46.77
20971;BME280;10644;48.834;10.088;2023-07-13T02:09:50;96617.59;;;24.07;46.59
20971;BME280;10644;48.834;10.088;2023-07-13T02:12:18;96607.13;;;24.15;46.31
20971;BME280;10644;48.834;10.088;2023-07-13T02:14:44;96620.66;;;24.27;45.92
20971;BME280;10644;48.834;10.088;2023-07-13T02:17:10;96622.28;;;24.36;46.13
20971;BME280;10644;48.834;10.088;2023-07-13T02:19:35;96618.91;;;24.19;46.22
20971;BME280;10644;48.834;10.088;2023-07-13T02:22:03;96620.19;;;24.23;46.13
20971;BME280;10644;48.834;10.088;2023-07-13T02:24:28;96616.94;;;24.21;46.18
20971;BME280;10644;48.834;10.088;2023-07-13T02:26:53;96625.91;;;24.27;46.00
20971;BME280;10644;48.834;10.088;2023-07-13T02:29:22;96633.41;;;24.38;45.63
20971;BME280;10644;48.834;10.088;2023-07-13T02:31:48;96627.22;;;24.31;46.35
20971;BME280;10644;48.834;10.088;2023-07-13T02:34:13;96622.66;;;24.25;46.23
20971;BME280;10644;48.834;10.088;2023-07-13T02:36:41;96631.81;;;24.21;46.25
20971;BME280;10644;48.834;10.088;2023-07-13T02:39:07;96633.78;;;24.19;46.16
20971;BME280;10644;48.834;10.088;2023-07-13T02:41:34;96639.69;;;24.13;46.53
20971;BME280;10644;48.834;10.088;2023-07-13T02:43:59;96636.91;;;24.14;46.54
20971;BME280;10644;48.834;10.088;2023-07-13T02:46:33;96643.31;;;24.12;46.51
20971;BME280;10644;48.834;10.088;2023-07-13T02:48:58;96633.81;;;24.11;46.47
20971;BME280;10644;48.834;10.088;2023-07-13T02:51:24;96635.44;;;24.04;46.34
20971;BME280;10644;48.834;10.088;2023-07-13T02:53:49;96634.16;;;24.00;46.50
20971;BME280;10644;48.834;10.088;2023-07-13T02:56:15;96628.09;;;23.75;46.97
20971;BME280;10644;48.834;10.088;2023-07-13T02:58:42;96631.91;;;23.89;46.91
20971;BME280;10644;48.834;10.088;2023-07-13T03:01:11;96635.31;;;23.89;46.90
20971;BME280;10644;48.834;10.088;2023-07-13T03:03:37;96628.25;;;23.82;46.48
20971;BME280;10644;48.834;10.088;2023-07-13T03:06:03;96632.19;;;23.86;46.40
20971;BME280;10644;48.834;10.088;2023-07-13T03:08:30;96637.09;;;23.73;47.08
20971;BME280;10644;48.834;10.088;2023-07-13T03:11:03;96639.69;;;23.81;46.48
20971;BME280;10644;48.834;10.088;2023-07-13T03:13:28;96638.06;;;23.80;46.31
20971;BME280;10644;48.834;10.088;2023-07-13T03:15:54;96646.44;;;23.75;46.69
20971;BME280;10644;48.834;10.088;2023-07-13T03:18:20;96648.22;;;23.83;46.51
20971;BME280;10644;48.834;10.088;2023-07-13T03:20:45;96656.91;;;23.91;45.82
20971;BME280;10644;48.834;10.088;2023-07-13T03:23:10;96659.00;;;24.04;46.11
20971;BME280;10644;48.834;10.088;2023-07-13T03:25:36;96665.72;;;24.14;45.93
20971;BME280;10644;48.834;10.088;2023-07-13T03:28:04;96662.44;;;24.20;45.64
20971;BME280;10644;48.834;10.088;2023-07-13T03:30:31;96647.22;;;24.16;45.60
20971;BME280;10644;48.834;10.088;2023-07-13T03:32:56;96658.34;;;24.10;45.74
20971;BME280;10644;48.834;10.088;2023-07-13T03:35:22;96655.78;;;23.94;45.89
20971;BME280;10644;48.834;10.088;2023-07-13T03:37:49;96661.16;;;24.00;46.40
20971;BME280;10644;48.834;10.088;2023-07-13T03:40:16;96666.56;;;24.07;46.00
20971;BME280;10644;48.834;10.088;2023-07-13T03:42:41;96675.69;;;23.87;46.31
20971;BME280;10644;48.834;10.088;2023-07-13T03:45:08;96667.53;;;23.74;46.22
20971;BME280;10644;48.834;10.088;2023-07-13T03:47:35;96669.81;;;23.69;46.69
20971;BME280;10644;48.834;10.088;2023-07-13T03:50:01;96679.94;;;23.64;46.62
20971;BME280;10644;48.834;10.088;2023-07-13T03:52:26;96667.22;;;23.77;46.70
20971;BME280;10644;48.834;10.088;2023-07-13T03:54:51;96669.63;;;23.78;46.62
20971;BME280;10644;48.834;10.088;2023-07-13T03:57:19;96672.25;;;23.78;46.85
20971;BME280;10644;48.834;10.088;2023-07-13T03:59:45;96669.81;;;23.85;46.69
20971;BME280;10644;48.834;10.088;2023-07-13T04:02:12;96671.78;;;23.91;46.41
20971;BME280;10644;48.834;10.088;2023-07-13T04:04:40;96670.16;;;23.90;46.71
20971;BME280;10644;48.834;10.088;2023-07-13T04:07:06;96680.47;;;23.91;46.75
20971;BME280;10644;48.834;10.088;2023-07-13T04:09:33;96682.91;;;23.85;46.61
20971;BME280;10644;48.834;10.088;2023-07-13T04:11:59;96693.09;;;23.88;46.45
20971;BME280;10644;48.834;10.088;2023-07-13T04:14:24;96691.38;;;23.87;46.50
20971;BME280;10644;48.834;10.088;2023-07-13T04:16:49;96691.06;;;23.82;46.66
20971;BME280;10644;48.834;10.088;2023-07-13T04:19:15;96702.84;;;23.78;46.60
20971;BME280;10644;48.834;10.088;2023-07-13T04:21:40;96700.41;;;23.76;46.80
20971;BME280;10644;48.834;10.088;2023-07-13T04:24:05;96707.09;;;23.71;46.99
20971;BME280;10644;48.834;10.088;2023-07-13T04:26:31;96703.31;;;23.73;47.03
20971;BME280;10644;48.834;10.088;2023-07-13T04:28:57;96708.88;;;23.62;47.09
20971;BME280;10644;48.834;10.088;2023-07-13T04:31:22;96707.72;;;23.65;47.35
20971;BME280;10644;48.834;10.088;2023-07-13T04:33:49;96699.25;;;23.63;47.08
20971;BME280;10644;48.834;10.088;2023-07-13T04:36:17;96720.16;;;23.63;46.95
20971;BME280;10644;48.834;10.088;2023-07-13T04:38:43;96697.59;;;23.62;46.99
20971;BME280;10644;48.834;10.088;2023-07-13T04:41:08;96708.25;;;23.68;46.91
20971;BME280;10644;48.834;10.088;2023-07-13T04:43:34;96708.75;;;23.72;46.86
20971;BME280;10644;48.834;10.088;2023-07-13T04:46:06;96705.44;;;23.54;47.13
20971;BME280;10644;48.834;10.088;2023-07-13T04:48:31;96713.09;;;23.39;47.35
20971;BME280;10644;48.834;10.088;2023-07-13T04:50:58;96705.09;;;23.41;47.16
20971;BME280;10644;48.834;10.088;2023-07-13T04:53:23;96711.94;;;23.42;47.28
20971;BME280;10644;48.834;10.088;2023-07-13T04:55:49;96723.56;;;23.39;47.55
20971;BME280;10644;48.834;10.088;2023-07-13T04:58:14;96711.00;;;23.51;47.31
20971;BME280;10644;48.834;10.088;2023-07-13T05:00:42;96704.94;;;23.50;47.13
20971;BME280;10644;48.834;10.088;2023-07-13T05:03:07;96708.06;;;23.62;46.82
20971;BME280;10644;48.834;10.088;2023-07-13T05:05:33;96705.44;;;23.70;46.43
20971;BME280;10644;48.834;10.088;2023-07-13T05:07:59;96707.44;;;23.60;46.49
20971;BME280;10644;48.834;10.088;2023-07-13T05:10:24;96709.53;;;23.64;46.39
20971;BME280;10644;48.834;10.088;2023-07-13T05:12:52;96713.31;;;23.62;46.49
20971;BME280;10644;48.834;10.088;2023-07-13T05:15:18;96703.47;;;23.48;46.50
20971;BME280;10644;48.834;10.088;2023-07-13T05:17:47;96715.34;;;23.26;46.54
20971;BME280;10644;48.834;10.088;2023-07-13T05:20:13;96718.75;;;23.19;48.65
20971;BME280;10644;48.834;10.088;2023-07-13T05:22:38;96712.91;;;23.25;48.51
20971;BME280;10644;48.834;10.088;2023-07-13T05:25:06;96719.16;;;23.32;46.95
20971;BME280;10644;48.834;10.088;2023-07-13T05:27:35;96720.09;;;23.31;47.00
20971;BME280;10644;48.834;10.088;2023-07-13T05:30:07;96715.56;;;23.41;46.73
20971;BME280;10644;48.834;10.088;2023-07-13T05:32:35;96724.53;;;23.30;46.51
20971;BME280;10644;48.834;10.088;2023-07-13T05:35:01;96724.72;;;23.45;45.97
20971;BME280;10644;48.834;10.088;2023-07-13T05:37:26;96721.66;;;23.57;46.01
20971;BME280;10644;48.834;10.088;2023-07-13T05:39:51;96728.47;;;23.50;46.22
20971;BME280;10644;48.834;10.088;2023-07-13T05:42:17;96722.09;;;23.45;45.89
20971;BME280;10644;48.834;10.088;2023-07-13T05:44:42;96722.75;;;23.39;46.13
20971;BME280;10644;48.834;10.088;2023-07-13T05:47:10;96722.28;;;23.51;45.82
20971;BME280;10644;48.834;10.088;2023-07-13T05:49:35;96724.91;;;23.67;45.47
20971;BME280;10644;48.834;10.088;2023-07-13T05:52:01;96725.75;;;23.68;45.25
20971;BME280;10644;48.834;10.088;2023-07-13T05:54:26;96732.28;;;23.80;45.40
20971;BME280;10644;48.834;10.088;2023-07-13T05:56:52;96732.78;;;23.83;45.14
20971;BME280;10644;48.834;10.088;2023-07-13T05:59:17;96736.88;;;23.78;45.55
20971;BME280;10644;48.834;10.088;2023-07-13T06:01:43;96724.50;;;23.88;45.01
20971;BME280;10644;48.834;10.088;2023-07-13T06:04:08;96727.38;;;23.85;45.31
20971;BME280;10644;48.834;10.088;2023-07-13T06:06:34;96738.06;;;23.99;45.14
20971;BME280;10644;48.834;10.088;2023-07-13T06:08:59;96747.88;;;23.97;45.27
20971;BME280;10644;48.834;10.088;2023-07-13T06:11:26;96737.88;;;24.09;45.07
20971;BME280;10644;48.834;10.088;2023-07-13T06:13:52;96744.28;;;24.06;45.09
20971;BME280;10644;48.834;10.088;2023-07-13T06:16:18;96741.00;;;24.12;45.00
20971;BME280;10644;48.834;10.088;2023-07-13T06:18:44;96751.94;;;24.16;44.91
20971;BME280;10644;48.834;10.088;2023-07-13T06:21:12;96749.69;;;24.29;45.02
20971;BME280;10644;48.834;10.088;2023-07-13T06:23:40;96746.06;;;24.30;44.85
20971;BME280;10644;48.834;10.088;2023-07-13T06:26:07;96756.69;;;24.28;44.89
20971;BME280;10644;48.834;10.088;2023-07-13T06:28:33;96760.81;;;24.39;44.80
20971;BME280;10644;48.834;10.088;2023-07-13T06:30:59;96761.13;;;24.36;44.41
20971;BME280;10644;48.834;10.088;2023-07-13T06:33:25;96763.91;;;24.18;45.12
20971;BME280;10644;48.834;10.088;2023-07-13T06:35:50;96765.03;;;24.16;44.83
20971;BME280;10644;48.834;10.088;2023-07-13T06:38:15;96764.41;;;24.30;44.45
20971;BME280;10644;48.834;10.088;2023-07-13T06:40:41;96762.75;;;23.97;45.15
20971;BME280;10644;48.834;10.088;2023-07-13T06:43:06;96772.59;;;23.95;44.85
20971;BME280;10644;48.834;10.088;2023-07-13T06:45:39;96767.03;;;24.14;45.04
20971;BME280;10644;48.834;10.088;2023-07-13T06:48:07;96777.97;;;24.17;44.50
20971;BME280;10644;48.834;10.088;2023-07-13T06:50:33;96771.28;;;24.07;44.51
20971;BME280;10644;48.834;10.088;2023-07-13T06:52:59;96775.69;;;24.06;44.84
20971;BME280;10644;48.834;10.088;2023-07-13T06:55:25;96781.09;;;23.97;45.00
20971;BME280;10644;48.834;10.088;2023-07-13T06:57:50;96786.31;;;23.97;45.12
20971;BME280;10644;48.834;10.088;2023-07-13T07:00:16;96791.41;;;24.22;44.29
20971;BME280;10644;48.834;10.088;2023-07-13T07:02:44;96783.06;;;23.95;44.43
20971;BME280;10644;48.834;10.088;2023-07-13T07:05:09;96793.53;;;23.95;44.38
20971;BME280;10644;48.834;10.088;2023-07-13T07:07:35;96784.03;;;24.10;43.94
20971;BME280;10644;48.834;10.088;2023-07-13T07:10:03;96784.38;;;24.31;43.43
20971;BME280;10644;48.834;10.088;2023-07-13T07:12:29;96791.91;;;24.34;43.22
20971;BME280;10644;48.834;10.088;2023-07-13T07:14:54;96787.63;;;24.41;43.25
20971;BME280;10644;48.834;10.088;2023-07-13T07:17:19;96797.63;;;24.45;42.63
20971;BME280;10644;48.834;10.088;2023-07-13T07:19:45;96792.88;;;24.49;43.37
20971;BME280;10644;48.834;10.088;2023-07-13T07:22:10;96800.06;;;24.47;43.45
20971;BME280;10644;48.834;10.088;2023-07-13T07:24:35;96805.66;;;24.52;43.03
20971;BME280;10644;48.834;10.088;2023-07-13T07:27:01;96810.88;;;24.44;42.79
20971;BME280;10644;48.834;10.088;2023-07-13T07:29:26;96805.31;;;24.31;41.96
20971;BME280;10644;48.834;10.088;2023-07-13T07:31:55;96807.13;;;24.22;43.31
20971;BME280;10644;48.834;10.088;2023-07-13T07:34:20;96807.97;;;24.39;43.00
20971;BME280;10644;48.834;10.088;2023-07-13T07:36:45;96805.97;;;24.25;42.04
20971;BME280;10644;48.834;10.088;2023-07-13T07:39:11;96816.78;;;24.22;42.25
20971;BME280;10644;48.834;10.088;2023-07-13T07:41:37;96813.84;;;24.25;41.99
20971;BME280;10644;48.834;10.088;2023-07-13T07:44:02;96817.78;;;24.29;42.13
20971;BME280;10644;48.834;10.088;2023-07-13T07:46:28;96818.56;;;24.45;42.05
20971;BME280;10644;48.834;10.088;2023-07-13T07:48:55;96826.28;;;24.39;42.62
20971;BME280;10644;48.834;10.088;2023-07-13T07:51:21;96813.16;;;24.55;42.59
20971;BME280;10644;48.834;10.088;2023-07-13T07:53:47;96817.78;;;24.61;42.48
20971;BME280;10644;48.834;10.088;2023-07-13T07:56:12;96829.22;;;24.52;41.89
20971;BME280;10644;48.834;10.088;2023-07-13T07:58:38;96829.91;;;24.62;42.28
20971;BME280;10644;48.834;10.088;2023-07-13T08:01:04;96824.31;;;24.81;41.85
20971;BME280;10644;48.834;10.088;2023-07-13T08:03:31;96820.38;;;24.61;41.67
20971;BME280;10644;48.834;10.088;2023-07-13T08:05:56;96811.38;;;24.79;41.98
20971;BME280;10644;48.834;10.088;2023-07-13T08:08:21;96815.78;;;24.95;41.67
20971;BME280;10644;48.834;10.088;2023-07-13T08:10:47;96816.94;;;24.92;42.24
20971;BME280;10644;48.834;10.088;2023-07-13T08:13:12;96818.41;;;24.71;42.43
20971;BME280;10644;48.834;10.088;2023-07-13T08:15:40;96821.50;;;24.90;41.75
20971;BME280;10644;48.834;10.088;2023-07-13T08:18:06;96824.88;;;25.15;41.63
20971;BME280;10644;48.834;10.088;2023-07-13T08:20:32;96820.63;;;25.06;41.27
20971;BME280;10644;48.834;10.088;2023-07-13T08:23:00;96821.97;;;25.02;41.46
20971;BME280;10644;48.834;10.088;2023-07-13T08:25:27;96810.81;;;25.08;41.15
20971;BME280;10644;48.834;10.088;2023-07-13T08:27:53;96826.50;;;25.24;40.53
20971;BME280;10644;48.834;10.088;2023-07-13T08:30:20;96827.50;;;25.23;41.21
20971;BME280;10644;48.834;10.088;2023-07-13T08:32:46;96832.91;;;25.21;40.48
20971;BME280;10644;48.834;10.088;2023-07-13T08:35:11;96823.88;;;25.32;39.94
20971;BME280;10644;48.834;10.088;2023-07-13T08:37:38;96824.63;;;25.48;39.67
20971;BME280;10644;48.834;10.088;2023-07-13T08:40:04;96812.94;;;25.59;39.75
20971;BME280;10644;48.834;10.088;2023-07-13T08:45:53;96821.81;;;25.58;39.43
20971;BME280;10644;48.834;10.088;2023-07-13T08:47:57;96823.28;;;25.83;39.13
20971;BME280;10644;48.834;10.088;2023-07-13T08:50:34;96822.50;;;25.82;39.08
20971;BME280;10644;48.834;10.088;2023-07-13T08:53:02;96816.19;;;25.99;38.64
20971;BME280;10644;48.834;10.088;2023-07-13T08:55:33;96828.16;;;26.02;38.47
20971;BME280;10644;48.834;10.088;2023-07-13T08:58:13;96826.69;;;25.99;38.94
20971;BME280;10644;48.834;10.088;2023-07-13T09:04:02;96835.56;;;26.21;37.90
20971;BME280;10644;48.834;10.088;2023-07-13T09:14:41;96815.81;;;26.70;37.07
20971;BME280;10644;48.834;10.088;2023-07-13T09:17:17;96810.91;;;26.67;37.57
20971;BME280;10644;48.834;10.088;2023-07-13T09:19:43;96812.72;;;26.44;37.17
20971;BME280;10644;48.834;10.088;2023-07-13T09:22:19;96812.78;;;26.36;36.88
20971;BME280;10644;48.834;10.088;2023-07-13T09:27:29;96812.81;;;26.73;36.75
20971;BME280;10644;48.834;10.088;2023-07-13T09:30:12;96819.34;;;26.77;34.41
20971;BME280;10644;48.834;10.088;2023-07-13T09:32:50;96821.94;;;26.40;34.02
20971;BME280;10644;48.834;10.088;2023-07-13T09:35:21;96819.09;;;26.27;33.51
20971;BME280;10644;48.834;10.088;2023-07-13T09:37:47;96813.63;;;26.51;32.81
20971;BME280;10644;48.834;10.088;2023-07-13T09:40:34;96812.06;;;26.64;33.09
20971;BME280;10644;48.834;10.088;2023-07-13T09:43:02;96801.22;;;26.82;31.98
20971;BME280;10644;48.834;10.088;2023-07-13T09:45:32;96815.75;;;27.07;32.38
20971;BME280;10644;48.834;10.088;2023-07-13T09:48:00;96810.16;;;27.39;32.34
20971;BME280;10644;48.834;10.088;2023-07-13T09:50:28;96813.94;;;27.51;32.01
20971;BME280;10644;48.834;10.088;2023-07-13T09:52:55;96814.88;;;27.29;31.65
20971;BME280;10644;48.834;10.088;2023-07-13T09:55:33;96813.41;;;27.41;31.71
20971;BME280;10644;48.834;10.088;2023-07-13T09:58:18;96818.13;;;27.60;31.54
20971;BME280;10644;48.834;10.088;2023-07-13T10:00:56;96816.19;;;27.68;31.86
20971;BME280;10644;48.834;10.088;2023-07-13T10:03:28;96812.94;;;28.02;31.18
20971;BME280;10644;48.834;10.088;2023-07-13T10:06:03;96816.97;;;28.19;30.80
20971;BME280;10644;48.834;10.088;2023-07-13T10:08:35;96808.38;;;28.31;31.30
20971;BME280;10644;48.834;10.088;2023-07-13T10:13:47;96816.44;;;28.09;30.75
20971;BME280;10644;48.834;10.088;2023-07-13T10:16:17;96812.56;;;27.84;31.03
20971;BME280;10644;48.834;10.088;2023-07-13T10:21:22;96840.69;;;28.19;30.40
20971;BME280;10644;48.834;10.088;2023-07-13T10:23:52;96824.94;;;28.25;30.30
20971;BME280;10644;48.834;10.088;2023-07-13T10:26:26;96826.25;;;28.36;30.27
20971;BME280;10644;48.834;10.088;2023-07-13T10:28:55;96819.13;;;28.51;29.66
20971;BME280;10644;48.834;10.088;2023-07-13T10:31:22;96824.41;;;28.51;29.33
20971;BME280;10644;48.834;10.088;2023-07-13T10:33:51;96825.38;;;28.29;30.11
20971;BME280;10644;48.834;10.088;2023-07-13T10:38:55;96828.41;;;28.47;30.73
20971;BME280;10644;48.834;10.088;2023-07-13T10:41:26;96832.31;;;28.51;28.42
20971;BME280;10644;48.834;10.088;2023-07-13T10:43:56;96821.94;;;28.49;28.69
20971;BME280;10644;48.834;10.088;2023-07-13T10:46:25;96823.75;;;28.49;28.77
20971;BME280;10644;48.834;10.088;2023-07-13T10:49:01;96829.94;;;28.56;28.95
20971;BME280;10644;48.834;10.088;2023-07-13T10:51:28;96828.31;;;28.82;27.96
20971;BME280;10644;48.834;10.088;2023-07-13T10:54:17;96821.94;;;28.98;29.19
20971;BME280;10644;48.834;10.088;2023-07-13T10:56:45;96818.00;;;29.15;28.33
20971;BME280;10644;48.834;10.088;2023-07-13T11:04:12;96808.38;;;29.01;27.85
20971;BME280;10644;48.834;10.088;2023-07-13T11:06:39;96806.47;;;28.95;28.35
20971;BME280;10644;48.834;10.088;2023-07-13T11:09:41;96811.47;;;29.11;28.41
20971;BME280;10644;48.834;10.088;2023-07-13T11:27:49;96810.03;;;29.49;27.85
20971;BME280;10644;48.834;10.088;2023-07-13T11:33:09;96796.31;;;29.60;27.63
20971;BME280;10644;48.834;10.088;2023-07-13T11:35:51;96804.75;;;29.49;27.36
20971;BME280;10644;48.834;10.088;2023-07-13T11:38:27;96784.94;;;29.66;27.88
20971;BME280;10644;48.834;10.088;2023-07-13T11:40:55;96800.34;;;29.56;27.54
20971;BME280;10644;48.834;10.088;2023-07-13T11:43:21;96803.72;;;29.03;27.73
20971;BME280;10644;48.834;10.088;2023-07-13T11:45:50;96814.94;;;29.11;27.79
20971;BME280;10644;48.834;10.088;2023-07-13T11:48:27;96805.19;;;29.12;27.70
20971;BME280;10644;48.834;10.088;2023-07-13T11:51:04;96800.22;;;28.75;26.44
20971;BME280;10644;48.834;10.088;2023-07-13T11:53:40;96797.06;;;28.86;26.53
20971;BME280;10644;48.834;10.088;2023-07-13T11:56:06;96795.03;;;28.88;26.72
20971;BME280;10644;48.834;10.088;2023-07-13T11:58:32;96778.03;;;29.18;26.28
20971;BME280;10644;48.834;10.088;2023-07-13T12:01:00;96793.34;;;29.42;26.39
20971;BME280;10644;48.834;10.088;2023-07-13T12:03:30;96799.97;;;29.59;26.56
20971;BME280;10644;48.834;10.088;2023-07-13T12:05:57;96798.00;;;29.74;26.27
20971;BME280;10644;48.834;10.088;2023-07-13T12:08:23;96787.91;;;29.97;25.65
20971;BME280;10644;48.834;10.088;2023-07-13T12:10:56;96783.28;;;30.25;25.92
20971;BME280;10644;48.834;10.088;2023-07-13T12:13:22;96794.09;;;30.30;25.43
20971;BME280;10644;48.834;10.088;2023-07-13T12:15:48;96800.56;;;30.34;25.93
20971;BME280;10644;48.834;10.088;2023-07-13T12:18:17;96799.38;;;30.43;26.15
20971;BME280;10644;48.834;10.088;2023-07-13T12:20:44;96786.13;;;30.17;26.03
20971;BME280;10644;48.834;10.088;2023-07-13T12:23:22;96787.94;;;30.23;26.61
20971;BME280;10644;48.834;10.088;2023-07-13T12:25:49;96794.09;;;30.43;26.16
20971;BME280;10644;48.834;10.088;2023-07-13T12:31:02;96792.44;;;30.22;26.82
20971;BME280;10644;48.834;10.088;2023-07-13T12:33:29;96796.44;;;30.05;26.68
20971;BME280;10644;48.834;10.088;2023-07-13T12:35:55;96798.06;;;30.06;26.61
20971;BME280;10644;48.834;10.088;2023-07-13T12:38:21;96803.94;;;29.95;27.03
20971;BME280;10644;48.834;10.088;2023-07-13T12:40:49;96790.53;;;29.97;26.92
20971;BME280;10644;48.834;10.088;2023-07-13T12:43:16;96792.25;;;30.24;26.78
20971;BME280;10644;48.834;10.088;2023-07-13T12:46:00;96798.94;;;30.13;26.91
20971;BME280;10644;48.834;10.088;2023-07-13T12:48:28;96784.31;;;30.37;26.74
20971;BME280;10644;48.834;10.088;2023-07-13T12:50:55;96790.41;;;30.37;26.32
20971;BME280;10644;48.834;10.088;2023-07-13T12:53:23;96778.13;;;30.04;26.75
20971;BME280;10644;48.834;10.088;2023-07-13T12:55:56;96787.34;;;30.21;27.47
20971;BME280;10644;48.834;10.088;2023-07-13T12:58:31;96783.09;;;30.33;27.09
20971;BME280;10644;48.834;10.088;2023-07-13T13:00:59;96787.97;;;30.49;27.10
20971;BME280;10644;48.834;10.088;2023-07-13T13:03:33;96781.88;;;30.61;27.01
20971;BME280;10644;48.834;10.088;2023-07-13T13:08:29;96779.44;;;30.79;26.38
20971;BME280;10644;48.834;10.088;2023-07-13T13:10:55;96769.50;;;30.75;26.68
20971;BME280;10644;48.834;10.088;2023-07-13T13:13:20;96774.75;;;30.88;26.74
20971;BME280;10644;48.834;10.088;2023-07-13T13:15:46;96771.09;;;30.76;26.63
20971;BME280;10644;48.834;10.088;2023-07-13T13:18:17;96765.75;;;31.15;26.45
20971;BME280;10644;48.834;10.088;2023-07-13T13:20:43;96767.56;;;31.14;26.35
20971;BME280;10644;48.834;10.088;2023-07-13T13:23:16;96769.25;;;30.83;26.49
20971;BME280;10644;48.834;10.088;2023-07-13T13:25:45;96754.19;;;30.77;26.90
20971;BME280;10644;48.834;10.088;2023-07-13T13:28:15;96761.09;;;30.58;27.04
20971;BME280;10644;48.834;10.088;2023-07-13T13:30:42;96766.22;;;30.79;26.47
20971;BME280;10644;48.834;10.088;2023-07-13T13:33:13;96774.53;;;30.96;26.64
20971;BME280;10644;48.834;10.088;2023-07-13T13:35:42;96745.16;;;31.10;25.78
20971;BME280;10644;48.834;10.088;2023-07-13T13:38:16;96751.38;;;31.48;26.05
20971;BME280;10644;48.834;10.088;2023-07-13T13:40:43;96754.19;;;31.53;26.38
20971;BME280;10644;48.834;10.088;2023-07-13T13:43:22;96750.88;;;31.01;26.64
20971;BME280;10644;48.834;10.088;2023-07-13T13:45:55;96763.09;;;31.15;26.04
20971;BME280;10644;48.834;10.088;2023-07-13T13:48:34;96746.22;;;31.03;26.43
20971;BME280;10644;48.834;10.088;2023-07-13T13:51:11;96750.09;;;30.94;26.38